createdAt,value
2019-03-05T00:21:25.421Z,58.40
2019-03-05T01:07:10.564Z,64.45
2019-03-05T01:07:43.578Z,69.05
2019-03-05T01:08:19.516Z,74.97
2019-03-05T01:08:52.324Z,73.70
2019-03-05T01:09:25.133Z,78.62
2019-03-05T01:09:58.312Z,72.72
2019-03-05T01:10:31.572Z,74.22
2019-03-05T01:11:05.509Z,69.05
2019-03-05T01:11:38.136Z,70.57
2019-03-05T01:12:11.617Z,77.37
2019-03-05T01:12:45.318Z,76.55
2019-03-05T01:13:18.097Z,74.90
2019-03-05T01:13:55.036Z,73.72
2019-03-05T01:14:28.867Z,67.65
2019-03-05T01:15:05.383Z,67.55
2019-03-05T01:15:39.912Z,72.62
2019-03-05T01:16:15.315Z,79.55
2019-03-05T01:16:48.521Z,75.25
2019-03-05T01:17:21.488Z,72.40
2019-03-05T01:17:54.360Z,77.37
2019-03-05T01:18:27.855Z,60.43
2019-03-05T01:19:01.129Z,73.12
2019-03-05T01:21:14.086Z,69.45
2019-03-05T01:21:48.434Z,66.37
2019-03-05T01:22:24.149Z,68.95
2019-03-05T01:22:58.943Z,73.12
2019-03-05T01:23:33.433Z,69.20
2019-03-05T01:24:08.470Z,72.53
2019-03-05T01:24:43.426Z,74.75
2019-03-05T01:25:19.441Z,86.53
2019-03-05T01:25:54.206Z,84.28
2019-03-05T01:26:27.969Z,74.90
2019-03-05T01:27:02.247Z,78.80
2019-03-05T01:27:36.215Z,84.05
2019-03-05T01:28:11.682Z,76.90
2019-03-05T01:28:45.434Z,75.50
2019-03-05T01:29:20.085Z,84.10
2019-03-05T01:29:54.954Z,80.00
2019-03-05T01:32:01.212Z,77.45
2019-03-05T01:33:11.415Z,72.87
2019-03-05T01:33:45.702Z,70.80
2019-03-05T01:34:54.439Z,83.12
2019-03-05T01:35:28.895Z,81.47
2019-03-05T01:36:03.262Z,73.65
2019-03-05T01:36:37.576Z,79.17
2019-03-05T01:37:46.274Z,77.47
2019-03-05T01:38:20.955Z,80.87
2019-03-05T01:38:55.427Z,79.03
2019-03-05T01:39:29.269Z,75.67
2019-03-05T01:40:03.431Z,72.17
2019-03-05T01:40:37.243Z,80.17
2019-03-05T01:41:11.439Z,76.40
2019-03-05T01:41:45.774Z,83.30
2019-03-05T01:42:54.833Z,83.60
2019-03-05T01:43:28.758Z,78.72
2019-03-05T01:44:37.152Z,93.60
2019-03-05T01:45:11.131Z,82.02
2019-03-05T01:45:45.837Z,83.95
2019-03-05T01:46:20.274Z,82.30
2019-03-05T01:46:54.449Z,89.30
2019-03-05T01:47:28.522Z,86.82
2019-03-05T01:48:02.976Z,88.55
2019-03-05T01:48:36.677Z,72.78
2019-03-05T01:49:47.266Z,81.32
2019-03-05T01:50:21.456Z,69.62
2019-03-05T01:50:55.737Z,89.32
2019-03-05T01:52:04.431Z,78.00
2019-03-05T01:52:38.239Z,77.22
2019-03-05T01:53:12.925Z,78.95
2019-03-05T01:53:46.519Z,74.95
2019-03-05T01:54:20.625Z,78.90
2019-03-05T01:54:54.661Z,74.03
2019-03-05T01:55:28.653Z,77.17
2019-03-05T01:56:03.526Z,77.17
2019-03-05T01:56:38.225Z,89.20
2019-03-05T01:57:12.482Z,74.30
2019-03-05T01:57:46.409Z,75.30
2019-03-05T01:58:20.465Z,84.03
2019-03-05T01:58:54.771Z,72.25
2019-03-05T02:00:04.441Z,86.70
2019-03-05T02:01:13.193Z,71.25
2019-03-05T02:01:47.426Z,73.57
2019-03-05T02:02:21.430Z,79.77
2019-03-05T02:02:55.461Z,82.88
2019-03-05T02:04:04.434Z,75.62
2019-03-05T02:04:38.241Z,87.15
2019-03-05T02:05:12.203Z,82.17
2019-03-05T02:05:46.671Z,76.40
2019-03-05T02:06:54.946Z,74.65
2019-03-05T02:07:29.480Z,72.27
2019-03-05T02:08:03.757Z,70.78
2019-03-05T02:08:37.884Z,74.82
2019-03-05T02:09:12.613Z,78.30
2019-03-05T02:09:46.751Z,82.82
2019-03-05T02:10:21.234Z,70.85
2019-03-05T02:10:56.430Z,78.40
2019-03-05T02:11:30.419Z,78.83
2019-03-05T02:12:04.907Z,77.20
2019-03-05T02:12:39.264Z,78.90
2019-03-05T02:13:13.175Z,79.30
2019-03-05T02:13:47.389Z,74.77
2019-03-05T02:14:21.734Z,77.50
2019-03-05T02:14:55.768Z,73.92
2019-03-05T02:15:29.760Z,75.87
2019-03-05T02:16:03.564Z,75.75
2019-03-05T02:17:12.251Z,69.87
2019-03-05T02:17:46.417Z,75.22
2019-03-05T02:18:20.430Z,72.72
2019-03-05T02:18:55.752Z,69.03
2019-03-05T02:19:31.254Z,74.03
2019-03-05T02:20:07.894Z,77.32
2019-03-05T02:20:43.493Z,71.00
2019-03-05T02:21:18.996Z,66.00
2019-03-05T02:21:54.455Z,71.92
2019-03-05T02:23:06.673Z,76.80
2019-03-05T02:23:41.708Z,74.97
2019-03-05T02:24:17.737Z,73.33
2019-03-05T02:24:53.210Z,76.17
2019-03-05T02:25:28.588Z,76.85
2019-03-05T02:26:04.666Z,83.60
2019-03-05T02:27:15.531Z,84.75
2019-03-05T02:27:50.583Z,82.78
2019-03-05T02:28:26.867Z,83.60
2019-03-05T02:29:02.634Z,83.95
2019-03-05T02:30:13.988Z,78.57
2019-03-05T02:32:38.090Z,80.53
2019-03-05T02:33:13.438Z,80.40
2019-03-05T02:33:48.248Z,78.60
2019-03-05T02:34:23.829Z,82.20
2019-03-05T02:34:58.840Z,76.92
2019-03-05T02:35:34.011Z,77.25
2019-03-05T02:36:09.512Z,78.02
2019-03-05T02:36:44.997Z,74.72
2019-03-05T02:37:20.766Z,82.57
2019-03-05T02:37:56.689Z,76.00
2019-03-05T02:38:31.427Z,76.05
2019-03-05T02:39:05.503Z,87.90
2019-03-05T02:40:15.278Z,79.90
2019-03-05T02:40:49.276Z,81.65
2019-03-05T02:41:23.493Z,75.22
2019-03-05T02:41:57.608Z,73.40
2019-03-05T02:42:32.421Z,76.42
2019-03-05T02:43:07.767Z,70.95
2019-03-05T02:43:43.892Z,79.27
2019-03-05T02:44:20.103Z,75.37
2019-03-05T02:44:55.975Z,82.80
2019-03-05T02:46:07.702Z,69.15
2019-03-05T02:46:43.427Z,65.37
2019-03-05T02:47:18.715Z,73.52
2019-03-05T02:47:53.569Z,76.30
2019-03-05T02:48:28.501Z,64.42
2019-03-05T02:49:04.520Z,71.75
2019-03-05T02:49:39.018Z,75.37
2019-03-05T02:50:14.444Z,68.85
2019-03-05T02:50:48.844Z,76.22
2019-03-05T02:51:23.698Z,74.27
2019-03-05T02:51:58.782Z,74.53
2019-03-05T02:52:34.426Z,73.30
2019-03-05T02:53:09.596Z,78.33
2019-03-05T02:53:45.247Z,69.45
2019-03-05T02:54:20.904Z,73.87
2019-03-05T02:54:54.864Z,74.07
2019-03-05T02:55:29.462Z,72.58
2019-03-05T02:56:05.429Z,69.82
2019-03-05T02:56:40.790Z,74.32
2019-03-05T02:57:16.995Z,72.82
2019-03-05T02:57:52.850Z,81.32
2019-03-05T02:58:28.719Z,65.90
2019-03-05T02:59:03.927Z,69.05
2019-03-05T02:59:39.297Z,69.87
2019-03-05T03:00:14.954Z,73.67
2019-03-05T03:00:50.507Z,66.82
2019-03-05T03:01:25.447Z,74.97
2019-03-05T03:02:00.427Z,66.77
2019-03-05T03:02:34.505Z,68.57
2019-03-05T03:03:08.500Z,74.20
2019-03-05T03:03:43.278Z,67.50
2019-03-05T03:04:17.443Z,67.37
2019-03-05T03:04:51.443Z,66.17
2019-03-05T03:05:25.407Z,66.35
2019-03-05T03:05:59.245Z,68.33
2019-03-05T03:06:33.385Z,81.87
2019-03-05T03:07:07.250Z,78.97
2019-03-05T03:07:40.928Z,73.83
2019-03-05T03:08:15.129Z,73.80
2019-03-05T03:08:49.134Z,72.53
2019-03-05T03:09:23.133Z,65.10
2019-03-05T03:09:56.823Z,71.80
2019-03-05T03:10:30.904Z,84.25
2019-03-05T03:11:04.851Z,73.97
2019-03-05T03:11:38.442Z,79.32
2019-03-05T03:12:12.545Z,78.15
2019-03-05T03:12:46.540Z,82.80
2019-03-05T03:13:20.421Z,72.05
2019-03-05T03:13:54.707Z,76.28
2019-03-05T03:14:30.268Z,84.97
2019-03-05T03:15:04.507Z,71.70
2019-03-05T03:15:39.852Z,77.17
2019-03-05T03:16:15.027Z,77.78
2019-03-05T03:16:49.685Z,73.70
2019-03-05T03:17:23.821Z,74.55
2019-03-05T03:17:57.783Z,73.15
2019-03-05T03:19:06.408Z,76.42
2019-03-05T03:19:40.498Z,71.65
2019-03-05T03:20:14.430Z,75.75
2019-03-05T03:20:48.182Z,78.50
2019-03-05T03:21:22.423Z,77.72
2019-03-05T03:21:57.242Z,73.85
2019-03-05T03:22:31.446Z,75.97
2019-03-05T03:23:06.940Z,77.37
2019-03-05T03:23:42.725Z,79.45
2019-03-05T03:24:18.455Z,80.47
2019-03-05T03:24:53.119Z,78.80
2019-03-05T03:25:26.824Z,77.78
2019-03-05T03:26:34.695Z,80.25
2019-03-05T03:27:08.637Z,81.10
2019-03-05T03:27:42.631Z,83.55
2019-03-05T03:28:16.205Z,75.65
2019-03-05T03:28:49.876Z,84.80
2019-03-05T03:29:23.996Z,78.57
2019-03-05T03:29:58.481Z,71.10
2019-03-05T03:30:32.205Z,66.82
2019-03-05T03:31:06.395Z,73.47
2019-03-05T03:31:40.395Z,73.62
2019-03-05T03:32:14.461Z,74.27
2019-03-05T03:32:48.701Z,75.05
2019-03-05T03:33:22.560Z,77.62
2019-03-05T03:33:57.843Z,74.07
2019-03-05T03:34:32.730Z,76.62
2019-03-05T03:35:09.028Z,78.05
2019-03-05T03:35:44.430Z,86.47
2019-03-05T03:36:55.807Z,74.60
2019-03-05T03:37:31.435Z,82.45
2019-03-05T03:38:07.046Z,73.35
2019-03-05T03:38:42.444Z,82.08
2019-03-05T03:39:17.639Z,80.62
2019-03-05T03:40:27.899Z,79.32
2019-03-05T03:41:02.242Z,74.70
2019-03-05T03:41:36.134Z,78.55
2019-03-05T03:42:10.249Z,78.07
2019-03-05T03:42:44.219Z,83.30
2019-03-05T03:43:18.248Z,84.80
2019-03-05T03:43:52.429Z,84.95
2019-03-05T03:44:26.235Z,80.85
2019-03-05T03:45:00.417Z,87.12
2019-03-05T03:45:34.658Z,79.65
2019-03-05T03:46:08.650Z,80.10
2019-03-05T03:46:42.674Z,76.00
2019-03-05T03:47:20.170Z,76.70
2019-03-05T03:47:53.850Z,77.35
2019-03-05T03:49:01.980Z,79.15
2019-03-05T03:49:36.152Z,91.85
2019-03-05T03:50:09.977Z,76.42
2019-03-05T03:50:43.957Z,81.02
2019-03-05T03:51:18.429Z,82.57
2019-03-05T03:51:52.412Z,84.42
2019-03-05T03:52:25.962Z,80.03
2019-03-05T03:52:59.873Z,83.22
2019-03-05T03:53:34.139Z,77.10
2019-03-05T03:54:07.949Z,82.15
2019-03-05T03:54:41.696Z,89.75
2019-03-05T03:55:15.588Z,80.10
2019-03-05T03:55:49.197Z,82.00
2019-03-05T03:56:23.251Z,87.17
2019-03-05T03:56:57.797Z,84.32
2019-03-05T03:58:05.689Z,76.40
2019-03-05T03:58:39.431Z,81.37
2019-03-05T03:59:13.211Z,78.22
2019-03-05T03:59:46.845Z,90.28
2019-03-05T04:00:21.862Z,80.35
2019-03-05T04:01:29.793Z,79.35
2019-03-05T04:02:03.780Z,83.50
2019-03-05T04:02:38.254Z,88.42
2019-03-05T04:03:12.457Z,89.03
2019-03-05T04:03:46.431Z,86.87
2019-03-05T04:04:20.581Z,87.45
2019-03-05T04:06:04.249Z,88.25
2019-03-05T04:06:38.686Z,89.58
2019-03-05T04:07:12.746Z,88.55
2019-03-05T04:07:46.786Z,83.70
2019-03-05T04:08:56.272Z,86.32
2019-03-05T04:09:31.444Z,77.92
2019-03-05T04:10:06.911Z,75.10
2019-03-05T04:10:42.849Z,87.88
2019-03-05T04:11:17.202Z,87.02
2019-03-05T04:11:51.683Z,83.07
2019-03-05T04:12:26.423Z,87.92
2019-03-05T04:13:00.227Z,83.65
2019-03-05T04:13:34.439Z,96.78
2019-03-05T04:14:08.544Z,85.62
2019-03-05T04:14:43.124Z,92.10
2019-03-05T04:15:18.275Z,92.57
2019-03-05T04:15:52.246Z,84.07
2019-03-05T04:16:26.175Z,90.65
2019-03-05T04:17:00.442Z,93.92
2019-03-05T04:17:34.580Z,92.65
2019-03-05T04:18:42.517Z,96.37
2019-03-05T04:19:16.572Z,99.75
2019-03-05T04:19:50.612Z,93.58
2019-03-05T04:20:24.694Z,85.07
2019-03-05T04:21:33.845Z,98.40
2019-03-05T04:22:07.977Z,87.90
2019-03-05T04:22:42.241Z,98.25
2019-03-05T04:23:16.247Z,99.30
2019-03-05T04:23:50.225Z,99.87
2019-03-05T04:24:24.463Z,100.75
2019-03-05T04:24:58.218Z,102.10
2019-03-05T04:25:33.491Z,94.58
2019-03-05T04:26:08.347Z,94.62
2019-03-05T04:26:43.834Z,99.10
2019-03-05T04:27:18.721Z,100.50
2019-03-05T04:27:54.522Z,100.40
2019-03-05T04:28:29.437Z,93.80
2019-03-05T04:29:04.615Z,97.53
2019-03-05T04:29:40.027Z,95.83
2019-03-05T04:30:15.847Z,99.13
2019-03-05T04:30:51.559Z,100.12
2019-03-05T04:31:27.199Z,101.25
2019-03-05T04:32:02.737Z,101.30
2019-03-05T04:32:38.025Z,105.60
2019-03-05T04:33:13.659Z,106.05
2019-03-05T04:34:24.849Z,103.83
2019-03-05T04:35:00.790Z,94.80
2019-03-05T04:35:36.470Z,104.45
2019-03-05T04:36:12.154Z,98.65
2019-03-05T04:36:47.566Z,100.58
2019-03-05T04:37:22.473Z,100.12
2019-03-05T04:37:58.165Z,106.97
2019-03-05T04:38:33.247Z,98.65
2019-03-05T04:39:08.765Z,95.85
2019-03-05T04:39:43.762Z,102.62
2019-03-05T04:40:18.737Z,100.87
2019-03-05T04:40:54.454Z,97.02
2019-03-05T04:41:28.819Z,98.87
2019-03-05T04:42:04.470Z,103.07
2019-03-05T04:42:39.896Z,98.60
2019-03-05T04:43:15.796Z,103.00
2019-03-05T04:43:51.576Z,101.42
2019-03-05T04:44:27.432Z,107.15
2019-03-05T04:45:39.008Z,96.75
2019-03-05T04:46:14.994Z,105.22
2019-03-05T04:46:49.755Z,100.78
2019-03-05T04:47:23.754Z,97.95
2019-03-05T04:48:33.759Z,97.57
2019-03-05T04:49:08.529Z,92.60
2019-03-05T04:49:44.120Z,98.03
2019-03-05T04:50:19.467Z,94.90
2019-03-05T04:50:57.240Z,98.12
2019-03-05T04:51:33.084Z,100.20
2019-03-05T04:52:10.323Z,96.67
2019-03-05T04:52:46.745Z,103.43
2019-03-05T04:53:26.496Z,92.42
2019-03-05T04:54:10.355Z,97.47
2019-03-05T04:54:45.799Z,96.82
2019-03-05T04:55:20.460Z,98.80
2019-03-05T04:55:58.435Z,94.42
2019-03-05T04:56:32.542Z,105.30
2019-03-05T04:57:13.082Z,96.15
2019-03-05T04:57:47.161Z,95.60
2019-03-05T04:58:21.247Z,102.00
2019-03-05T04:58:55.441Z,96.30
2019-03-05T04:59:29.761Z,100.70
2019-03-05T05:00:03.797Z,104.53
2019-03-05T05:00:38.744Z,97.67
2019-03-05T05:01:13.454Z,98.07
2019-03-05T05:01:47.577Z,99.15
2019-03-05T05:02:22.431Z,98.27
2019-03-05T05:02:59.454Z,107.70
2019-03-05T10:41:24.418Z,75.03
2019-03-05T10:41:59.197Z,78.75
2019-03-05T10:42:33.855Z,73.65
2019-03-05T10:43:09.169Z,71.80
2019-03-05T10:43:43.331Z,74.37
2019-03-05T10:44:19.153Z,73.55
2019-03-05T10:44:55.477Z,77.72
2019-03-05T10:46:07.755Z,71.30
2019-03-05T10:47:52.789Z,234.83
2019-03-05T10:49:03.695Z,60.70
2019-03-05T10:50:15.876Z,96.70
2019-03-05T10:50:50.829Z,71.35
2019-03-05T10:51:25.997Z,79.55
2019-03-05T10:52:40.528Z,78.35
2019-03-05T10:53:16.016Z,80.57
2019-03-05T10:53:52.084Z,81.70
2019-03-05T10:54:28.128Z,105.20
2019-03-05T10:55:02.921Z,76.72
2019-03-05T10:56:14.889Z,77.27
2019-03-05T10:58:04.462Z,107.17
2019-03-05T10:58:41.511Z,195.82
2019-03-05T10:59:18.197Z,244.47
2019-03-05T10:59:54.155Z,90.72
2019-03-05T11:01:09.145Z,84.65
2019-03-05T11:03:00.242Z,65.05
2019-03-05T11:03:35.952Z,74.97
2019-03-05T11:05:23.970Z,83.20
2019-03-05T11:06:36.629Z,81.28
2019-03-05T11:07:46.983Z,82.00
2019-03-05T11:10:11.568Z,61.28
2019-03-05T11:11:21.212Z,69.97
2019-03-05T11:11:56.123Z,72.58
2019-03-05T11:12:31.889Z,74.20
2019-03-05T11:14:17.815Z,76.95
2019-03-05T11:14:52.828Z,72.60
2019-03-05T11:16:02.796Z,69.70
2019-03-05T11:16:37.860Z,78.75
2019-03-05T11:17:12.818Z,77.65
2019-03-05T11:18:29.293Z,72.12
2019-03-05T11:19:34.875Z,73.60
2019-03-05T14:27:27.077Z,42.78
2019-03-05T14:28:10.124Z,39.10
2019-03-05T14:28:45.000Z,43.68
2019-03-05T14:29:20.133Z,43.33
2019-03-05T14:29:55.129Z,40.25
2019-03-05T14:30:29.430Z,47.30
2019-03-05T14:31:04.084Z,43.87
2019-03-05T14:31:39.085Z,43.78
2019-03-05T14:33:10.528Z,47.62
2019-03-05T14:33:45.522Z,49.18
2019-03-05T14:34:20.188Z,42.90
2019-03-05T14:34:54.775Z,47.62
2019-03-05T14:35:29.151Z,45.45
2019-03-05T14:36:03.568Z,44.38
2019-03-05T14:37:12.659Z,44.50
2019-03-05T14:38:21.463Z,44.67
2019-03-05T14:38:55.739Z,41.30
2019-03-05T14:39:30.185Z,40.43
2019-03-05T14:40:23.013Z,46.20
2019-03-05T14:40:40.637Z,57.35
2019-03-05T14:41:49.854Z,46.73
2019-03-05T14:42:24.510Z,45.43
2019-03-05T14:43:00.593Z,49.50
2019-03-05T14:43:36.727Z,47.30
2019-03-05T14:44:11.124Z,46.37
2019-03-05T14:44:45.598Z,48.73
2019-03-05T14:45:54.632Z,51.80
2019-03-05T14:46:29.043Z,44.10
2019-03-05T14:47:03.100Z,49.55
2019-03-05T14:47:37.773Z,47.15
2019-03-05T14:48:46.407Z,55.75
2019-03-05T14:49:20.860Z,46.85
2019-03-05T14:49:55.663Z,50.28
2019-03-05T14:51:04.322Z,43.55
2019-03-05T14:51:38.765Z,54.10
2019-03-05T14:53:21.580Z,56.55
2019-03-05T14:53:55.843Z,44.40
2019-03-05T14:54:30.069Z,51.50
2019-03-05T14:55:04.801Z,41.53
2019-03-05T14:55:39.090Z,53.83
2019-03-05T14:56:13.545Z,50.88
2019-03-05T14:57:22.758Z,47.85
2019-03-05T14:57:56.898Z,47.90
2019-03-05T14:58:31.427Z,45.00
2019-03-05T14:59:05.773Z,51.90
2019-03-05T15:00:14.851Z,48.60
2019-03-05T15:00:49.265Z,43.08
2019-03-05T15:01:23.782Z,52.13
2019-03-05T15:03:38.537Z,47.40
2019-03-05T15:04:48.601Z,46.08
2019-03-05T15:05:22.739Z,45.80
2019-03-05T15:05:57.252Z,41.35
2019-03-05T15:09:08.061Z,50.83
2019-03-05T15:09:43.068Z,51.73
2019-03-05T15:11:49.254Z,46.88
2019-03-05T15:12:23.990Z,44.53
2019-03-05T15:13:00.892Z,46.37
2019-03-05T16:08:34.639Z,110.68
2019-03-05T16:17:09.204Z,83.27
2019-03-05T16:17:43.760Z,85.20
2019-03-05T16:18:18.111Z,84.75
2019-03-05T16:18:52.446Z,75.20
2019-03-05T16:19:26.437Z,74.22
2019-03-05T16:20:00.665Z,67.80
2019-03-05T16:20:34.805Z,74.50
2019-03-05T16:21:08.430Z,72.40
2019-03-05T16:21:42.865Z,71.02
2019-03-05T16:22:18.352Z,71.00
2019-03-05T16:22:55.061Z,62.70
2019-03-05T16:23:29.404Z,57.17
2019-03-05T16:24:03.818Z,65.78
2019-03-05T16:24:38.873Z,74.65
2019-03-05T16:25:50.302Z,60.48
2019-03-05T16:26:24.878Z,88.22
2019-03-05T16:26:58.803Z,62.77
2019-03-05T16:27:33.469Z,53.90
2019-03-05T16:28:07.639Z,65.78
2019-03-05T16:28:43.490Z,64.70
2019-03-05T16:29:20.153Z,68.93
2019-03-05T16:29:55.844Z,62.53
2019-03-05T16:30:34.319Z,59.83
2019-03-05T16:31:11.528Z,63.10
2019-03-05T16:31:49.801Z,57.60
2019-03-05T16:32:23.107Z,54.50
2019-03-05T16:32:59.984Z,53.50
2019-03-05T16:33:36.936Z,47.35
2019-03-05T16:34:13.206Z,50.13
2019-03-05T16:34:47.067Z,55.80
2019-03-05T16:35:20.963Z,48.95
2019-03-05T16:35:55.790Z,54.23
2019-03-05T16:36:31.048Z,52.15
2019-03-05T16:37:07.150Z,51.53
2019-03-05T16:38:20.165Z,52.88
2019-03-05T16:39:33.310Z,49.67
2019-03-05T16:40:09.110Z,48.40
2019-03-05T16:40:44.580Z,46.50
2019-03-05T16:41:57.488Z,48.68
2019-03-05T16:42:33.826Z,51.30
2019-03-05T16:43:06.882Z,56.30
2019-03-05T16:43:41.785Z,47.20
2019-03-05T16:44:50.801Z,49.67
2019-03-05T16:45:59.788Z,56.20
2019-03-05T16:46:35.694Z,44.90
2019-03-05T16:48:54.745Z,56.68
2019-03-05T16:50:39.779Z,53.90
2019-03-05T16:51:48.803Z,55.58
2019-03-05T16:52:57.814Z,47.62
2019-03-05T16:53:33.152Z,46.23
2019-03-05T16:54:09.892Z,52.15
2019-03-05T16:57:05.801Z,61.88
2019-03-05T16:57:40.762Z,49.95
2019-03-05T16:58:14.992Z,49.30
2019-03-05T16:58:49.766Z,50.98
2019-03-05T16:59:24.759Z,48.10
2019-03-05T17:00:33.795Z,53.45
2019-03-05T17:01:43.696Z,52.67
2019-03-05T17:02:51.930Z,45.28
2019-03-05T17:04:01.730Z,50.10
2019-03-05T17:05:11.800Z,48.65
2019-03-05T17:05:46.720Z,49.27
2019-03-05T17:06:23.157Z,47.58
2019-03-05T17:07:34.828Z,55.40
2019-03-05T17:08:43.819Z,52.58
2019-03-05T17:09:52.857Z,51.42
2019-03-05T17:11:04.799Z,48.15
2019-03-05T17:12:50.832Z,51.90
2019-03-05T17:13:59.862Z,54.45
2019-03-05T17:14:35.839Z,53.48
2019-03-05T17:15:45.839Z,57.53
2019-03-05T17:16:20.834Z,48.65
2019-03-05T17:17:30.838Z,46.35
2019-03-05T17:18:39.868Z,49.80
2019-03-05T17:19:48.848Z,42.62
2019-03-05T17:20:58.828Z,51.18
2019-03-05T17:22:42.876Z,52.62
2019-03-05T17:25:02.834Z,46.73
2019-03-05T17:25:37.855Z,49.23
2019-03-05T17:26:48.871Z,45.75
2019-03-05T17:27:24.867Z,50.60
2019-03-05T17:27:59.838Z,46.48
2019-03-05T17:28:34.867Z,49.90
